Rockland, ME

1:55 PM EST on December 05, 2016 (GMT -0500)
| | Change Station

Elev -9999 ft 0.00 °N, 0.00 °E | Updated

Light Snow
Light Snow Mist
°F
Feels Like °F
N
Wind Variable Wind from North
Gusts mph

Today
High -- | Low -- °F
--% Chance of Precip.
Yesterday
High -- | Low -- °F
Precip. -- in
Pressure 29.94 in
Visibility 3.0 miles
Clouds Overcast 600 ft
Dew Point Not available.
Humidity Not available.
Rainfall --
Snow Depth Not available.
6:56 AM 3:58 PM
Waxing Crescent, 34% visible
SPECI KRKD 051840Z AUTO 10005KT 3SM -SN BR OVC006 01/M01 A2994 RMK AO2 CIG 005V009 P0001 FZRANO
Pressure 29.94 in
Visibility 3.0 miles
Clouds Overcast 600 ft
Dew Point Not available.
Humidity Not available.
Rainfall --
Snow Depth Not available.
6:56 AM 3:58 PM
Waxing Crescent, 34% visible
SPECI KRKD 051840Z AUTO 10005KT 3SM -SN BR OVC006 01/M01 A2994 RMK AO2 CIG 005V009 P0001 FZRANO

10-Day Weather Forecast

Almanac

Astronomy

Dec. 05, 2016 Rise Set
Actual Time
Civil Twilight
Nautical Twilight
Astronomical Twilight
Moon
Length of Visible Light
Length of Day
Tomorrow will be .
, % of the Moon is Illuminated

Today's Extremes

State Highs State Lows

Community

WunderPhotos

Upload Photos

1,955,851 photos uploaded!

WunderBlog® & News

Nearby

Air Quality

  Air Quality AQ Index Pollutant
Not available.

Snow Depth

Station Depth Elevation

Earthquake Activity

City Distance Mag. Time & Date
Minimum magnitude displayed is 2.5.

Coastal Water Temperatures

Place Temperature

Stations

Nearby Weather Stations

Station Location Temp. Windchill Dew Point Humidity Wind Precip. Elev Updated Type
                   

Watches & Warnings

There are currently no watches in effect.